createdAt,value
2017-12-25T00:01:31.192Z,-1.20
2017-12-25T00:03:59.653Z,-1.20
2017-12-25T00:06:27.357Z,-1.20
2017-12-25T00:08:54.986Z,-1.20
2017-12-25T00:11:22.620Z,-1.30
2017-12-25T00:13:51.125Z,-1.30
2017-12-25T00:16:18.758Z,-1.30
2017-12-25T00:18:46.384Z,-1.70
2017-12-25T00:21:14.104Z,-1.70
2017-12-25T00:23:41.796Z,-1.80
2017-12-25T00:26:09.446Z,-1.80
2017-12-25T00:28:37.139Z,-1.70
2017-12-25T00:31:04.772Z,-1.60
2017-12-25T00:33:33.229Z,-1.50
2017-12-25T00:36:00.932Z,-1.50
2017-12-25T00:38:28.578Z,-1.40
2017-12-25T00:40:56.212Z,-1.40
2017-12-25T00:43:23.900Z,-1.40
2017-12-25T00:45:51.533Z,-1.30
2017-12-25T00:48:21.157Z,-1.30
2017-12-25T00:50:47.838Z,-1.40
2017-12-25T00:53:15.469Z,-1.70
2017-12-25T00:55:43.108Z,-1.80
2017-12-25T00:58:10.792Z,-1.70
2017-12-25T01:00:38.425Z,-1.70
2017-12-25T01:03:06.055Z,-1.70
2017-12-25T01:05:33.765Z,-1.70
2017-12-25T01:08:01.400Z,-1.60
2017-12-25T01:10:29.022Z,-1.70
2017-12-25T01:15:35.813Z,-1.60
2017-12-25T01:18:03.513Z,-1.60
2017-12-25T01:20:31.953Z,-1.50
2017-12-25T01:22:59.585Z,-1.50
2017-12-25T01:25:27.274Z,-1.50
2017-12-25T01:27:54.900Z,-1.50
2017-12-25T01:30:22.540Z,-1.50
2017-12-25T01:35:17.879Z,-1.70
2017-12-25T01:37:45.512Z,-2.00
2017-12-25T01:40:13.199Z,-2.00
2017-12-25T01:42:41.176Z,-1.90
2017-12-25T01:45:08.819Z,-1.80
2017-12-25T01:50:04.163Z,-1.70
2017-12-25T01:52:32.950Z,-1.70
2017-12-25T01:55:00.649Z,-2.10
2017-12-25T02:03:01.434Z,-2.10
2017-12-25T02:08:23.151Z,-2.00
2017-12-25T02:10:50.863Z,-1.90
2017-12-25T02:13:18.486Z,-1.80
2017-12-25T02:15:46.124Z,-1.70
2017-12-25T02:18:13.810Z,-1.80
2017-12-25T02:20:43.230Z,-1.80
2017-12-25T02:23:09.067Z,-1.80
2017-12-25T02:25:36.783Z,-1.70
2017-12-25T02:28:04.405Z,-1.70
2017-12-25T02:30:32.047Z,-1.80
2017-12-25T02:32:59.744Z,-1.70
2017-12-25T02:35:27.363Z,-1.80
2017-12-25T02:40:25.804Z,-1.80
2017-12-25T02:42:53.431Z,-1.80
2017-12-25T02:45:23.801Z,-1.70
2017-12-25T02:47:51.481Z,-1.80
2017-12-25T02:50:19.112Z,-1.70
2017-12-25T02:52:46.762Z,-1.90
2017-12-25T02:55:14.469Z,-2.00
2017-12-25T02:57:42.103Z,-2.30
2017-12-25T03:00:09.744Z,-2.20
2017-12-25T03:02:37.459Z,-2.10
2017-12-25T03:05:05.117Z,-2.30
2017-12-25T03:07:33.571Z,-2.20
2017-12-25T03:10:01.607Z,-2.10
2017-12-25T03:12:29.230Z,-2.20
2017-12-25T03:14:57.665Z,-2.20
2017-12-25T03:17:25.373Z,-2.10
2017-12-25T03:19:53.224Z,-2.10
2017-12-25T03:22:20.625Z,-2.00
2017-12-25T03:24:48.321Z,-2.00
2017-12-25T03:27:15.947Z,-2.00
2017-12-25T03:32:23.125Z,-2.20
2017-12-25T03:34:50.750Z,-2.00
2017-12-25T03:37:18.671Z,-2.10
2017-12-25T03:39:46.088Z,-2.00
2017-12-25T03:42:14.663Z,-2.00
2017-12-25T03:44:42.294Z,-2.00
2017-12-25T03:47:09.997Z,-2.10
2017-12-25T03:52:05.535Z,-2.20
2017-12-25T03:54:33.227Z,-2.10
2017-12-25T03:57:01.339Z,-2.10
2017-12-25T03:59:28.987Z,-2.00
2017-12-25T04:01:56.664Z,-2.00
2017-12-25T04:04:24.288Z,-2.00
2017-12-25T04:06:51.920Z,-2.10
2017-12-25T04:09:20.083Z,-2.10
2017-12-25T04:11:47.713Z,-2.20
2017-12-25T04:14:16.117Z,-2.30
2017-12-25T04:16:43.799Z,-2.20
2017-12-25T04:19:11.428Z,-2.30
2017-12-25T04:21:39.068Z,-2.20
2017-12-25T04:24:06.771Z,-2.20
2017-12-25T04:26:34.402Z,-2.20
2017-12-25T04:31:45.963Z,-2.20
2017-12-25T04:34:13.593Z,-2.20
2017-12-25T04:36:41.230Z,-2.20
2017-12-25T04:41:36.594Z,-2.30
2017-12-25T04:44:04.230Z,-2.30
2017-12-25T04:46:35.078Z,-2.30
2017-12-25T04:49:03.032Z,-2.30
2017-12-25T04:51:30.666Z,-2.30
2017-12-25T04:53:58.354Z,-2.30
2017-12-25T04:56:25.988Z,-2.40
2017-12-25T04:58:53.975Z,-2.40
2017-12-25T05:01:21.686Z,-2.40
2017-12-25T05:03:51.230Z,-2.50
2017-12-25T05:06:16.946Z,-2.40
2017-12-25T05:08:45.481Z,-2.30
2017-12-25T05:11:13.107Z,-2.30
2017-12-25T05:13:40.746Z,-2.30
2017-12-25T05:18:36.086Z,-2.20
2017-12-25T05:21:04.679Z,-2.30
2017-12-25T05:25:59.966Z,-2.30
2017-12-25T05:28:27.594Z,-2.30
2017-12-25T05:30:55.291Z,-2.30
2017-12-25T05:33:22.934Z,-2.40
2017-12-25T05:35:50.560Z,-2.30
2017-12-25T05:38:18.243Z,-2.30
2017-12-25T05:40:46.595Z,-2.30
2017-12-25T05:43:14.239Z,-2.40
2017-12-25T05:45:41.948Z,-2.40
2017-12-25T05:48:09.576Z,-2.40
2017-12-25T05:50:37.202Z,-2.40
2017-12-25T05:53:05.883Z,-2.50
2017-12-25T06:00:40.302Z,-2.60
2017-12-25T06:03:09.734Z,-2.70
2017-12-25T06:05:35.574Z,-2.70
2017-12-25T06:08:06.327Z,-2.60
2017-12-25T06:10:33.967Z,-2.60
2017-12-25T06:13:02.328Z,-2.60
2017-12-25T06:15:30.016Z,-2.80
2017-12-25T06:17:58.460Z,-2.80
2017-12-25T06:20:26.093Z,-2.80
2017-12-25T06:22:55.507Z,-2.80
2017-12-25T06:25:23.855Z,-2.80
2017-12-25T06:27:51.500Z,-2.70
2017-12-25T06:30:19.224Z,-2.70
2017-12-25T06:35:14.479Z,-2.70
2017-12-25T06:37:42.346Z,-2.70
2017-12-25T06:40:09.976Z,-2.70
2017-12-25T06:42:37.598Z,-2.90
2017-12-25T06:45:05.743Z,-2.80
2017-12-25T06:47:33.374Z,-2.80
2017-12-25T06:50:01.004Z,-3.00
2017-12-25T06:54:58.645Z,-2.90
2017-12-25T06:57:27.242Z,-2.90
2017-12-25T06:59:54.921Z,-2.90
2017-12-25T07:02:22.547Z,-2.80
2017-12-25T07:04:52.021Z,-2.70
2017-12-25T07:07:19.732Z,-2.80
2017-12-25T07:09:47.363Z,-2.80
2017-12-25T07:12:14.986Z,-2.80
2017-12-25T07:14:45.881Z,-2.70
2017-12-25T07:17:13.899Z,-2.90
2017-12-25T07:19:41.560Z,-2.90
2017-12-25T07:24:48.344Z,-2.70
2017-12-25T07:27:16.030Z,-3.00
2017-12-25T07:29:43.916Z,-2.90
2017-12-25T07:32:11.555Z,-2.90
2017-12-25T07:34:42.827Z,-2.90
2017-12-25T07:37:10.469Z,-2.80
2017-12-25T07:39:38.539Z,-2.70
2017-12-25T07:42:06.222Z,-2.60
2017-12-25T07:44:33.847Z,-2.50
2017-12-25T07:47:03.297Z,-2.50
2017-12-25T07:49:31.928Z,-2.90
2017-12-25T07:51:59.566Z,-3.10
2017-12-25T07:54:27.196Z,-3.00
2017-12-25T07:56:54.889Z,-3.00
2017-12-25T08:01:50.149Z,-2.80
2017-12-25T08:04:17.855Z,-2.90
2017-12-25T08:09:13.925Z,-3.00
2017-12-25T08:11:41.664Z,-3.00
2017-12-25T08:14:09.293Z,-2.90
2017-12-25T08:16:36.923Z,-2.80
2017-12-25T08:19:05.495Z,-3.00
2017-12-25T08:21:33.133Z,-2.90
2017-12-25T08:26:31.882Z,-2.20
2017-12-25T08:28:59.519Z,-1.90
2017-12-25T08:31:28.013Z,-1.50
2017-12-25T08:33:55.699Z,-1.10
2017-12-25T08:36:23.328Z,-1.00
2017-12-25T08:38:50.961Z,-0.50
2017-12-25T08:41:18.669Z,-0.20
2017-12-25T08:46:25.463Z,0.50
2017-12-25T08:48:53.093Z,0.90
2017-12-25T08:51:20.742Z,1.20
2017-12-25T08:53:48.440Z,1.60
2017-12-25T08:56:16.067Z,1.60
2017-12-25T08:58:44.444Z,1.40
2017-12-25T09:01:12.129Z,1.70
2017-12-25T09:03:39.757Z,2.10
2017-12-25T09:06:07.392Z,2.20
2017-12-25T09:08:35.083Z,2.50
2017-12-25T09:11:02.718Z,2.60
2017-12-25T09:13:30.357Z,2.80
2017-12-25T09:15:58.053Z,3.20
2017-12-25T09:20:53.305Z,3.20
2017-12-25T09:23:21.019Z,2.70
2017-12-25T09:28:16.268Z,3.10
2017-12-25T09:30:43.961Z,3.50
2017-12-25T09:33:11.597Z,3.10
2017-12-25T09:35:39.233Z,3.50
2017-12-25T09:40:34.540Z,4.10
2017-12-25T09:43:02.157Z,4.40
2017-12-25T09:45:29.862Z,4.40
2017-12-25T09:47:57.503Z,4.00
2017-12-25T09:50:25.123Z,4.00
2017-12-25T09:52:52.829Z,4.40
2017-12-25T09:58:02.792Z,4.20
2017-12-25T10:00:30.403Z,4.40
2017-12-25T10:02:58.025Z,4.30
2017-12-25T10:05:25.700Z,4.20
2017-12-25T10:07:53.328Z,4.40
2017-12-25T10:10:20.938Z,4.70
2017-12-25T10:12:49.607Z,4.20
2017-12-25T10:15:17.230Z,4.70
2017-12-25T10:20:25.643Z,4.60
2017-12-25T10:22:53.259Z,4.30
2017-12-25T10:25:21.045Z,4.60
2017-12-25T10:27:51.633Z,4.80
2017-12-25T10:30:19.253Z,5.20
2017-12-25T10:32:46.878Z,5.00
2017-12-25T10:35:14.566Z,4.30
2017-12-25T10:37:42.191Z,4.30
2017-12-25T10:40:09.811Z,4.60
2017-12-25T10:42:37.487Z,4.70
2017-12-25T10:45:05.108Z,4.80
2017-12-25T10:47:32.737Z,4.50
2017-12-25T10:50:00.413Z,4.80
2017-12-25T10:52:28.037Z,4.70
2017-12-25T10:54:55.656Z,4.60
2017-12-25T10:57:24.285Z,5.50
2017-12-25T11:02:21.530Z,6.60
2017-12-25T11:04:49.229Z,6.70
2017-12-25T11:07:16.844Z,7.10
2017-12-25T11:09:44.469Z,6.70
2017-12-25T11:12:12.147Z,5.60
2017-12-25T11:14:39.787Z,5.20
2017-12-25T11:17:07.393Z,5.80
2017-12-25T11:19:35.095Z,6.50
2017-12-25T11:22:02.712Z,6.80
2017-12-25T11:24:30.336Z,7.10
2017-12-25T11:26:58.002Z,7.20
2017-12-25T11:29:25.618Z,7.40
2017-12-25T11:31:53.237Z,7.50
2017-12-25T11:34:20.961Z,7.70
2017-12-25T11:36:48.579Z,7.40
2017-12-25T11:39:16.196Z,7.50
2017-12-25T11:44:22.966Z,7.80
2017-12-25T11:46:51.601Z,8.50
2017-12-25T11:49:19.224Z,7.90
2017-12-25T11:51:47.379Z,7.40
2017-12-25T11:54:15.057Z,7.40
2017-12-25T11:56:42.682Z,7.40
2017-12-25T11:59:10.329Z,7.10
2017-12-25T12:01:37.986Z,7.00
2017-12-25T12:04:05.606Z,7.10
2017-12-25T12:06:33.225Z,7.30
2017-12-25T12:09:00.919Z,7.30
2017-12-25T12:11:28.547Z,7.50
2017-12-25T12:16:23.842Z,7.80
2017-12-25T12:18:51.463Z,8.60
2017-12-25T12:21:19.079Z,8.50
2017-12-25T12:23:47.716Z,8.50
2017-12-25T12:26:15.386Z,9.00
2017-12-25T12:28:42.977Z,8.80
2017-12-25T12:31:10.648Z,8.90
2017-12-25T12:36:05.884Z,8.60
2017-12-25T12:38:33.578Z,9.20
2017-12-25T12:41:01.200Z,8.30
2017-12-25T12:43:28.827Z,7.90
2017-12-25T12:45:56.503Z,7.80
2017-12-25T12:48:24.121Z,8.00
2017-12-25T12:50:51.745Z,8.10
2017-12-25T12:53:19.427Z,8.90
2017-12-25T12:55:47.055Z,9.80
2017-12-25T12:58:14.675Z,9.70
2017-12-25T13:00:42.353Z,9.60
2017-12-25T13:03:09.962Z,9.70
2017-12-25T13:08:16.724Z,10.10
2017-12-25T13:10:44.351Z,10.10
2017-12-25T13:13:12.672Z,9.50
2017-12-25T13:15:40.368Z,9.10
2017-12-25T13:18:07.986Z,9.30
2017-12-25T13:20:35.602Z,9.40
2017-12-25T13:23:03.277Z,9.50
2017-12-25T13:25:30.894Z,9.60
2017-12-25T13:27:58.521Z,9.90
2017-12-25T13:30:27.007Z,9.90
2017-12-25T13:32:54.635Z,10.10
2017-12-25T13:35:22.255Z,10.20
2017-12-25T13:37:49.963Z,10.40
2017-12-25T13:40:17.581Z,9.80
2017-12-25T13:42:45.198Z,9.60
2017-12-25T13:45:12.871Z,8.90
2017-12-25T13:47:41.452Z,8.40
2017-12-25T13:50:09.080Z,8.40
2017-12-25T13:52:36.776Z,8.80
2017-12-25T13:55:04.402Z,9.20
2017-12-25T13:57:32.021Z,9.30
2017-12-25T13:59:59.694Z,9.70
2017-12-25T14:02:27.311Z,9.40
2017-12-25T14:04:54.935Z,9.80
2017-12-25T14:07:22.611Z,9.90
2017-12-25T14:09:50.223Z,9.70
2017-12-25T14:12:17.855Z,9.50
2017-12-25T14:14:45.526Z,8.40
2017-12-25T14:17:13.137Z,7.70
2017-12-25T14:19:40.774Z,8.10
2017-12-25T14:22:08.458Z,8.20
2017-12-25T14:24:36.072Z,8.50
2017-12-25T14:27:03.705Z,7.80
2017-12-25T14:29:31.386Z,7.50
2017-12-25T14:34:41.899Z,6.80
2017-12-25T14:37:09.514Z,6.00
2017-12-25T14:39:37.145Z,6.10
2017-12-25T14:42:04.809Z,5.80
2017-12-25T14:47:00.057Z,5.90
2017-12-25T14:49:28.685Z,6.00
2017-12-25T14:57:17.880Z,5.70
2017-12-25T14:59:46.508Z,5.80
2017-12-25T15:02:14.139Z,5.60
2017-12-25T15:04:41.757Z,5.30
2017-12-25T15:07:09.437Z,5.00
2017-12-25T15:09:37.792Z,5.10
2017-12-25T15:12:06.304Z,5.10
2017-12-25T15:14:33.980Z,5.30
2017-12-25T15:17:01.607Z,5.10
2017-12-25T15:19:29.232Z,4.50
2017-12-25T15:21:56.936Z,4.80
2017-12-25T15:24:24.566Z,4.90
2017-12-25T15:26:52.189Z,5.00
2017-12-25T15:31:47.497Z,4.90
2017-12-25T15:34:15.140Z,4.50
2017-12-25T15:36:42.815Z,4.40
2017-12-25T15:39:10.430Z,4.40
2017-12-25T15:41:38.063Z,4.40
2017-12-25T15:44:05.751Z,4.40
2017-12-25T15:46:33.374Z,4.20
2017-12-25T15:51:28.712Z,4.10
2017-12-25T15:53:59.453Z,4.00
2017-12-25T15:56:27.508Z,3.80
2017-12-25T15:58:55.183Z,3.50
2017-12-25T16:01:22.801Z,3.50
2017-12-25T16:03:50.427Z,3.50
2017-12-25T16:06:18.136Z,3.50
2017-12-25T16:08:45.754Z,3.50
2017-12-25T16:11:13.376Z,3.50
2017-12-25T16:13:41.992Z,3.20
2017-12-25T16:16:09.619Z,3.00
2017-12-25T16:18:37.241Z,2.90
2017-12-25T16:23:46.029Z,3.00
2017-12-25T16:26:13.881Z,3.10
2017-12-25T16:28:41.506Z,3.00
2017-12-25T16:31:09.128Z,2.80
2017-12-25T16:33:36.825Z,2.90
2017-12-25T16:36:05.153Z,2.80
2017-12-25T16:38:32.787Z,2.90
2017-12-25T16:41:00.493Z,2.60
2017-12-25T16:43:29.060Z,2.50
2017-12-25T16:45:57.627Z,2.60
2017-12-25T16:48:25.340Z,2.70
2017-12-25T16:50:53.793Z,2.40
2017-12-25T16:53:24.328Z,2.10
2017-12-25T16:55:50.079Z,2.10
2017-12-25T16:58:17.703Z,2.10
2017-12-25T17:00:45.335Z,2.10
2017-12-25T17:03:13.043Z,2.10
2017-12-25T17:05:41.445Z,1.90
2017-12-25T17:08:09.032Z,1.60
2017-12-25T17:10:37.662Z,1.80
2017-12-25T17:13:05.291Z,1.70
2017-12-25T17:15:32.918Z,1.80
2017-12-25T17:18:00.622Z,1.70
2017-12-25T17:20:28.241Z,1.60
2017-12-25T17:22:56.591Z,1.20
2017-12-25T17:25:24.280Z,1.10
2017-12-25T17:27:52.778Z,1.10
2017-12-25T17:30:20.458Z,1.20
2017-12-25T17:32:48.114Z,1.20
2017-12-25T17:37:54.915Z,1.20
2017-12-25T17:40:22.549Z,1.20
2017-12-25T17:42:50.180Z,1.40
2017-12-25T17:47:45.537Z,1.40
2017-12-25T17:50:13.160Z,1.40
2017-12-25T17:55:08.492Z,1.30
2017-12-25T17:57:36.173Z,1.30
2017-12-25T18:00:03.823Z,1.20
2017-12-25T18:02:31.448Z,1.20
2017-12-25T18:07:41.591Z,1.00
2017-12-25T18:10:09.218Z,0.90
2017-12-25T18:12:36.851Z,1.00
2017-12-25T18:15:04.540Z,1.10
2017-12-25T18:17:32.174Z,1.20
2017-12-25T18:19:59.798Z,1.20
2017-12-25T18:22:27.481Z,1.20
2017-12-25T18:24:55.102Z,1.10
2017-12-25T18:27:22.729Z,1.10
2017-12-25T18:29:50.432Z,1.10
2017-12-25T18:32:18.059Z,1.10
2017-12-25T18:34:45.785Z,0.70
2017-12-25T18:37:13.395Z,0.70
2017-12-25T18:39:41.028Z,0.80
2017-12-25T18:44:36.338Z,0.60
2017-12-25T18:47:03.958Z,0.60
2017-12-25T18:49:31.587Z,0.60
2017-12-25T18:51:59.279Z,0.80
2017-12-25T18:54:26.908Z,0.90
2017-12-25T18:56:54.528Z,0.80
2017-12-25T18:59:22.217Z,0.70
2017-12-25T19:01:50.681Z,0.70
2017-12-25T19:04:19.207Z,-0.10
2017-12-25T19:06:46.879Z,0.10
2017-12-25T19:09:14.513Z,-0.10
2017-12-25T19:11:42.149Z,-0.20
2017-12-25T19:14:09.826Z,0.00
2017-12-25T19:16:37.461Z,0.10
2017-12-25T19:19:05.088Z,0.10
2017-12-25T19:21:33.883Z,0.20
2017-12-25T19:24:01.512Z,0.10
2017-12-25T19:26:29.146Z,0.00
2017-12-25T19:31:33.888Z,-0.60
2017-12-25T19:34:01.583Z,-0.30
2017-12-25T19:36:29.220Z,-0.10
2017-12-25T19:38:56.847Z,-0.10
2017-12-25T19:43:52.160Z,-0.20
2017-12-25T19:46:23.226Z,0.00
2017-12-25T19:53:59.481Z,-0.40
2017-12-25T19:56:27.103Z,-0.30
2017-12-25T19:58:54.746Z,-0.20
2017-12-25T20:01:22.429Z,-0.70
2017-12-25T20:03:50.935Z,-0.80
2017-12-25T20:06:18.569Z,-0.70
2017-12-25T20:08:46.291Z,-0.60
2017-12-25T20:13:41.553Z,-0.50
2017-12-25T20:16:09.260Z,-0.80
2017-12-25T20:18:36.893Z,-0.90
2017-12-25T20:21:05.359Z,-0.90
2017-12-25T20:23:34.023Z,-1.20
2017-12-25T20:26:02.480Z,-1.00
2017-12-25T20:30:58.615Z,-1.00
2017-12-25T20:35:53.890Z,-1.20
2017-12-25T20:38:21.579Z,-1.10
2017-12-25T20:40:49.207Z,-1.00
2017-12-25T20:43:16.845Z,-1.00
2017-12-25T20:45:44.556Z,-0.90
2017-12-25T20:48:12.191Z,-0.90
2017-12-25T20:50:39.824Z,-0.70
2017-12-25T20:53:07.517Z,-0.70
2017-12-25T20:55:35.138Z,-0.60
2017-12-25T20:58:02.776Z,-0.60
2017-12-25T21:02:58.105Z,-0.60
2017-12-25T21:05:25.752Z,-0.60
2017-12-25T21:07:53.445Z,-0.60
2017-12-25T21:10:24.135Z,-0.80
2017-12-25T21:12:51.758Z,-0.80
2017-12-25T21:15:19.480Z,-0.80
2017-12-25T21:20:26.268Z,-0.80
2017-12-25T21:22:53.907Z,-1.00
2017-12-25T21:25:21.543Z,-1.00
2017-12-25T21:27:49.231Z,-1.00
2017-12-25T21:30:16.896Z,-1.10
2017-12-25T21:32:44.491Z,-1.70
2017-12-25T21:35:12.197Z,-1.70
2017-12-25T21:37:39.836Z,-1.60
2017-12-25T21:40:07.471Z,-1.50
2017-12-25T21:42:35.150Z,-1.50
2017-12-25T21:45:03.721Z,-1.30
2017-12-25T21:47:31.354Z,-1.20
2017-12-25T21:49:59.074Z,-1.20
2017-12-25T21:52:28.587Z,-1.20
2017-12-25T21:54:54.336Z,-1.20
2017-12-25T21:57:22.030Z,-1.10
2017-12-25T21:59:49.663Z,-1.20
2017-12-25T22:02:17.294Z,-1.30
2017-12-25T22:04:44.994Z,-1.20
2017-12-25T22:07:12.626Z,-1.20
2017-12-25T22:09:40.257Z,-1.30
2017-12-25T22:12:09.902Z,-1.50
2017-12-25T22:14:35.638Z,-1.50
2017-12-25T22:17:03.273Z,-1.40
2017-12-25T22:19:30.955Z,-1.40
2017-12-25T22:21:58.596Z,-1.50
2017-12-25T22:24:26.226Z,-1.60
2017-12-25T22:26:53.942Z,-1.70
2017-12-25T22:29:26.428Z,-1.60
2017-12-25T22:31:54.119Z,-1.70
2017-12-25T22:34:24.692Z,-1.60
2017-12-25T22:36:52.340Z,-1.70
2017-12-25T22:39:20.068Z,-1.70
2017-12-25T22:47:09.827Z,-1.70
2017-12-25T22:49:37.547Z,-1.60
2017-12-25T22:52:05.162Z,-1.40
2017-12-25T22:54:33.220Z,-1.40
2017-12-25T22:57:00.978Z,-1.40
2017-12-25T22:59:28.612Z,-1.30
2017-12-25T23:01:56.252Z,-1.30
2017-12-25T23:04:23.944Z,-1.30
2017-12-25T23:06:51.584Z,-1.40
2017-12-25T23:09:19.228Z,-1.80
2017-12-25T23:11:46.930Z,-1.80
2017-12-25T23:14:14.576Z,-1.90
2017-12-25T23:16:44.993Z,-1.80
2017-12-25T23:19:12.702Z,-1.70
2017-12-25T23:21:40.327Z,-1.80
2017-12-25T23:24:07.974Z,-1.80
2017-12-25T23:26:35.700Z,-1.90
2017-12-25T23:29:03.332Z,-1.80
2017-12-25T23:33:58.656Z,-2.10
2017-12-25T23:36:28.280Z,-2.20
2017-12-25T23:38:55.908Z,-2.30
2017-12-25T23:43:51.255Z,-2.00
2017-12-25T23:49:05.850Z,-2.10
2017-12-25T23:51:35.150Z,-2.00
2017-12-25T23:54:02.789Z,-2.20
2017-12-25T23:56:30.492Z,-2.20
2017-12-25T23:58:58.119Z,-2.10
